CheckWX is a tool to help pilots better visualize weather data.  It is not intended as a substitute for an official pre-flight weather briefing.

08:54:43 UTC

EGKB METAR
London Biggin Hill Airport
London, United Kingdom
Current

35 mins ago

EGKB 180820Z VRB03KT 9999 FEW030 17/10 Q1015
Observed
Jun-18 @ 08:20 UTC
Wind
  • Variable at 3 KTS
Visibility
10,000+ meters
Flight Rules
VFR
Cloud Levels
  • Few at 3,000' AGL
Temperature
17°C / 63°F
Dewpoint
10°C / 50°F
Humidity
64%
Altimeter
29.97" Hg
Pressure
1014.92 hPa
Previous

1 hour ago

EGKB 180750Z VRB02KT CAVOK 16/09 Q1016
Observed
Jun-18 @ 07:50 UTC
Wind
  • Variable at 2 KTS
Visibility
10,000+ meters
Flight Rules
VFR
Cloud Levels
  • Clear skies
Temperature
16°C / 61°F
Dewpoint
C / 48°F
Humidity
63%
Altimeter
30" Hg
Pressure
1015.92 hPa
Previous

2 hours ago

EGKB 180720Z VRB01KT CAVOK 16/09 Q1016
Observed
Jun-18 @ 07:20 UTC
Wind
  • Variable at 1 KTS
Visibility
10,000+ meters
Flight Rules
VFR
Cloud Levels
  • Clear skies
Temperature
16°C / 61°F
Dewpoint
C / 48°F
Humidity
63%
Altimeter
30" Hg
Pressure
1015.92 hPa